createdAt,value
2018-02-04T13:13:10.609Z,10.40
2018-02-04T13:18:10.835Z,10.20
2018-02-04T13:20:37.946Z,10.10
2018-02-04T13:23:04.230Z,10.10
2018-02-04T13:25:31.300Z,9.60
2018-02-04T13:27:57.611Z,9.50
2018-02-04T13:30:24.774Z,9.60
2018-02-04T13:32:51.827Z,9.60
2018-02-04T13:35:18.130Z,9.50
2018-02-04T13:37:44.426Z,9.50
2018-02-04T13:40:10.793Z,9.60
2018-02-04T13:42:37.843Z,9.30
2018-02-04T13:45:04.918Z,9.30
2018-02-04T13:47:31.283Z,9.20
2018-02-04T13:49:57.629Z,9.30
2018-02-04T13:52:23.981Z,8.60
2018-02-04T13:54:51.042Z,9.20
2018-02-04T13:57:18.358Z,9.30
2018-02-04T13:59:44.698Z,9.20
2018-02-04T14:02:11.037Z,9.30
2018-02-04T14:04:37.379Z,9.20
2018-02-04T14:07:04.427Z,9.10
2018-02-04T14:09:31.502Z,9.10
2018-02-04T14:11:57.870Z,9.10
2018-02-04T14:14:24.397Z,9.20
2018-02-04T14:16:50.698Z,9.20
2018-02-04T14:19:17.038Z,9.20
2018-02-04T14:21:43.409Z,9.20
2018-02-04T14:24:09.714Z,9.20
2018-02-04T14:38:09.796Z,16.80
2018-02-04T14:40:36.117Z,16.60
2018-02-04T14:43:02.446Z,14.50
2018-02-04T14:45:28.771Z,12.80
2018-02-04T14:47:55.106Z,11.60
2018-02-04T14:50:21.439Z,10.90
2018-02-04T14:52:47.946Z,10.20
2018-02-04T14:55:15.002Z,9.30
2018-02-04T14:57:42.050Z,9.10
2018-02-04T15:00:09.143Z,9.00
2018-02-04T15:02:35.472Z,9.00
2018-02-04T15:05:01.804Z,8.80
2018-02-04T15:07:28.137Z,8.40
2018-02-04T15:09:54.461Z,8.70
2018-02-04T15:12:20.998Z,8.60
2018-02-04T15:14:47.340Z,8.50
2018-02-04T15:17:13.639Z,8.40
2018-02-04T15:19:39.951Z,8.30
2018-02-04T15:22:07.010Z,8.10
2018-02-04T15:24:33.325Z,8.00
2018-02-04T15:27:00.426Z,8.10
2018-02-04T15:29:26.745Z,8.00
2018-02-04T15:31:53.038Z,8.10
2018-02-04T15:34:19.370Z,8.10
2018-02-04T15:36:45.679Z,8.20
2018-02-04T15:39:12.731Z,8.00
2018-02-04T15:41:39.806Z,7.90
2018-02-04T15:44:06.210Z,7.90
2018-02-04T15:46:33.363Z,8.10
2018-02-04T15:49:00.410Z,8.00
2018-02-04T15:51:27.689Z,7.90
2018-02-04T15:53:54.063Z,7.50
2018-02-04T15:56:20.362Z,8.00
2018-02-04T15:58:46.705Z,8.00
2018-02-04T16:01:12.992Z,8.00
2018-02-04T16:03:39.311Z,7.90
2018-02-04T16:06:06.366Z,7.70
2018-02-04T16:08:33.442Z,7.50
2018-02-04T16:10:59.757Z,7.40
2018-02-04T16:13:26.066Z,7.50
2018-02-04T16:15:53.166Z,7.30
2018-02-04T16:18:19.491Z,7.20
2018-02-04T16:20:45.862Z,7.00
2018-02-04T16:23:12.154Z,7.00
2018-02-04T16:25:38.475Z,6.40
2018-02-04T16:28:04.762Z,6.60
2018-02-04T16:30:31.834Z,6.40
2018-02-04T16:32:58.138Z,6.30
2018-02-04T16:35:24.438Z,6.40
2018-02-04T16:37:50.757Z,6.30
2018-02-04T16:40:17.086Z,6.30
2018-02-04T16:42:43.406Z,6.20
2018-02-04T16:45:09.738Z,6.10
2018-02-04T16:47:36.063Z,6.00
2018-02-04T16:50:02.370Z,6.00
2018-02-04T16:52:29.436Z,5.80
2018-02-04T16:54:55.802Z,5.80
2018-02-04T16:57:24.099Z,5.80
2018-02-04T16:59:50.421Z,5.70
2018-02-04T17:02:16.754Z,5.50
2018-02-04T17:04:43.086Z,5.40
2018-02-04T17:07:09.389Z,5.50
